Euclides da Cunha Paulista, Brazil
Current Conditions -  °F | °C
As of 11:00 PM on Thursday 18 Dec 2014 (Local Time) from SBMG Reporting Station
Clear Clear  
Wind Chill: 79°   Ceiling: Unl
Heat Index: 81°   Visibility: 6mi
Dew Point: 68°   Wind: 3mph
Humidity: 69%   Direction: 350°N
Pressure: 29.85"   Gusts: NA
Location:  22.56°S, 52.59°W
Report Text: SBMG 190100Z 35003KT CAVOK 26/20 Q1011
Loading
Personal Weather Stations






























Interactive Weather Map New forecast layout! Learn more

10-Day Weather Forecast

Advertisements
Track Severe Weather on mobile